createdAt,value
2023-02-25T00:00:24.517Z,4.76
2023-02-25T00:05:43.506Z,4.74
2023-02-25T00:08:10.139Z,4.66
2023-02-25T00:11:11.514Z,4.68
2023-02-25T00:13:40.685Z,4.66
2023-02-25T00:16:07.975Z,4.70
2023-02-25T00:18:34.757Z,4.70
2023-02-25T00:21:06.126Z,4.70
2023-02-25T00:23:33.084Z,4.65
2023-02-25T00:26:05.496Z,4.64
2023-02-25T00:28:33.418Z,4.65
2023-02-25T00:31:00.133Z,4.68
2023-02-25T00:33:26.902Z,4.66
2023-02-25T00:35:56.147Z,4.69
2023-02-25T00:38:22.892Z,4.69
2023-02-25T00:40:49.471Z,4.69
2023-02-25T00:43:16.095Z,4.71
2023-02-25T00:45:42.761Z,4.72
2023-02-25T00:48:09.312Z,4.71
2023-02-25T00:53:05.564Z,4.62
2023-02-25T00:55:33.508Z,4.57
2023-02-25T00:58:03.626Z,4.58
2023-02-25T01:00:35.958Z,4.50
2023-02-25T01:03:09.721Z,4.52
2023-02-25T01:05:41.687Z,4.56
2023-02-25T01:08:08.383Z,4.45
2023-02-25T01:10:34.910Z,4.42
2023-02-25T01:13:01.456Z,4.43
2023-02-25T01:15:30.606Z,4.41
2023-02-25T01:17:57.124Z,4.39
2023-02-25T01:20:24.264Z,4.36
2023-02-25T01:22:50.808Z,4.39
2023-02-25T01:25:18.519Z,4.41
2023-02-25T01:27:45.035Z,4.41
2023-02-25T01:30:12.237Z,4.40
2023-02-25T01:32:38.916Z,4.33
2023-02-25T01:35:06.919Z,4.34
2023-02-25T01:37:33.494Z,4.34
2023-02-25T01:40:00.053Z,4.35
2023-02-25T01:42:26.812Z,4.33
2023-02-25T01:45:17.888Z,4.36
2023-02-25T01:47:52.178Z,4.39
2023-02-25T01:50:21.871Z,4.39
2023-02-25T01:52:48.832Z,4.43
2023-02-25T01:55:15.864Z,4.35
2023-02-25T01:57:42.431Z,4.29
2023-02-25T02:00:16.529Z,4.27
2023-02-25T02:02:47.726Z,4.24
2023-02-25T02:05:15.250Z,4.26
2023-02-25T02:07:41.762Z,4.25
2023-02-25T02:10:11.172Z,4.26
2023-02-25T02:12:42.292Z,4.25
2023-02-25T02:15:12.674Z,4.30
2023-02-25T02:17:49.660Z,4.30
2023-02-25T02:20:21.440Z,4.31
2023-02-25T02:23:16.738Z,4.28
2023-02-25T02:25:58.507Z,4.28
2023-02-25T02:28:55.775Z,4.34
2023-02-25T02:31:28.472Z,4.38
2023-02-25T02:34:19.591Z,4.39
2023-02-25T02:37:01.324Z,4.43
2023-02-25T02:39:58.472Z,4.40
2023-02-25T02:42:43.784Z,4.35
2023-02-25T02:45:35.277Z,4.41
2023-02-25T02:48:09.985Z,4.40
2023-02-25T02:50:40.954Z,4.34
2023-02-25T02:53:14.535Z,4.31
2023-02-25T02:55:46.342Z,4.31
2023-02-25T02:58:25.323Z,4.26
2023-02-25T03:00:58.377Z,4.20
2023-02-25T03:03:36.496Z,4.28
2023-02-25T03:06:07.472Z,4.24
2023-02-25T03:08:40.397Z,4.22
2023-02-25T03:11:07.006Z,4.20
2023-02-25T03:13:33.541Z,4.24
2023-02-25T03:16:04.254Z,4.27
2023-02-25T03:18:39.384Z,4.25
2023-02-25T03:21:15.003Z,4.24
2023-02-25T03:23:46.474Z,4.20
2023-02-25T03:26:18.740Z,4.26
2023-02-25T03:28:46.276Z,4.28
2023-02-25T03:31:12.780Z,4.24
2023-02-25T03:33:49.019Z,4.24
2023-02-25T03:36:44.133Z,4.26
2023-02-25T03:39:26.892Z,4.24
2023-02-25T03:41:56.430Z,4.21
2023-02-25T03:44:30.447Z,4.23
2023-02-25T03:46:58.839Z,4.26
2023-02-25T03:49:43.180Z,4.20
2023-02-25T03:52:17.073Z,4.19
2023-02-25T03:54:43.680Z,4.19
2023-02-25T03:57:10.320Z,4.23
2023-02-25T03:59:37.110Z,4.27
2023-02-25T04:02:03.785Z,4.32
2023-02-25T04:04:32.884Z,4.34
2023-02-25T04:06:59.850Z,4.35
2023-02-25T04:09:26.784Z,4.35
2023-02-25T04:11:57.132Z,4.33
2023-02-25T04:14:24.577Z,4.35
2023-02-25T04:16:51.230Z,4.36
2023-02-25T04:19:18.786Z,4.38
2023-02-25T04:21:45.295Z,4.40
2023-02-25T04:24:11.864Z,4.38
2023-02-25T04:26:38.404Z,4.40
2023-02-25T04:29:05.084Z,4.41
2023-02-25T04:31:31.989Z,4.36
2023-02-25T04:33:58.625Z,4.31
2023-02-25T04:36:31.396Z,4.34
2023-02-25T04:39:00.588Z,4.37
2023-02-25T04:41:33.160Z,4.42
2023-02-25T04:44:00.689Z,4.35
2023-02-25T04:46:27.419Z,4.38
2023-02-25T04:48:54.206Z,4.41
2023-02-25T04:51:21.278Z,4.43
2023-02-25T04:53:48.396Z,4.44
2023-02-25T04:56:15.294Z,4.46
2023-02-25T04:58:41.904Z,4.48
2023-02-25T05:01:12.375Z,4.46
2023-02-25T05:03:39.292Z,4.44
2023-02-25T05:06:06.774Z,4.41
2023-02-25T05:08:34.246Z,4.37
2023-02-25T05:11:01.932Z,4.42
2023-02-25T05:13:29.197Z,4.41
2023-02-25T05:16:10.952Z,4.34
2023-02-25T05:18:42.277Z,4.38
2023-02-25T05:21:12.306Z,4.42
2023-02-25T05:23:40.064Z,4.39
2023-02-25T05:26:07.009Z,4.32
2023-02-25T05:28:33.880Z,4.32
2023-02-25T05:31:00.798Z,4.27
2023-02-25T05:33:27.595Z,4.21
2023-02-25T05:35:54.127Z,4.24
2023-02-25T05:38:20.676Z,4.22
2023-02-25T05:40:47.756Z,4.23
2023-02-25T05:43:14.284Z,4.25
2023-02-25T05:45:40.866Z,4.30
2023-02-25T05:48:07.887Z,4.35
2023-02-25T05:50:41.879Z,4.31
2023-02-25T05:53:09.870Z,4.30
2023-02-25T05:55:41.814Z,4.31
2023-02-25T05:58:08.604Z,4.33
2023-02-25T06:00:36.298Z,4.32
2023-02-25T06:03:02.935Z,4.28
2023-02-25T06:05:32.298Z,4.27
2023-02-25T06:07:59.107Z,4.26
2023-02-25T06:10:27.611Z,4.26
2023-02-25T06:12:54.167Z,4.30
2023-02-25T06:15:20.735Z,4.27
2023-02-25T06:17:47.270Z,4.23
2023-02-25T06:20:16.591Z,4.28
2023-02-25T06:22:43.649Z,4.30
2023-02-25T06:25:10.186Z,4.31
2023-02-25T06:27:37.142Z,4.26
2023-02-25T06:30:04.895Z,4.25
2023-02-25T06:32:31.685Z,4.22
2023-02-25T06:34:58.426Z,4.17
2023-02-25T06:37:25.165Z,4.19
2023-02-25T06:39:53.167Z,4.17
2023-02-25T06:42:20.266Z,4.21
2023-02-25T06:44:46.835Z,4.21
2023-02-25T06:47:13.342Z,4.23
2023-02-25T06:49:40.202Z,4.24
2023-02-25T06:52:06.788Z,4.23
2023-02-25T06:54:33.355Z,4.26
2023-02-25T06:57:00.866Z,4.25
2023-02-25T06:59:27.505Z,4.24
2023-02-25T07:01:54.192Z,4.24
2023-02-25T07:04:20.847Z,4.25
2023-02-25T07:06:47.471Z,4.27
2023-02-25T07:09:14.017Z,4.27
2023-02-25T07:11:40.638Z,4.29
2023-02-25T07:14:07.356Z,4.27
2023-02-25T07:16:34.686Z,4.32
2023-02-25T07:19:02.451Z,4.39
2023-02-25T07:21:31.055Z,4.41
2023-02-25T07:23:58.793Z,4.46
2023-02-25T07:26:43.045Z,4.48
2023-02-25T07:29:09.793Z,4.46
2023-02-25T07:31:36.399Z,4.40
2023-02-25T07:34:08.270Z,4.40
2023-02-25T07:36:38.513Z,4.46
2023-02-25T07:39:06.800Z,4.50
2023-02-25T07:41:36.053Z,4.47
2023-02-25T07:44:05.108Z,4.51
2023-02-25T07:46:32.604Z,4.44
2023-02-25T07:48:59.867Z,4.50
2023-02-25T07:51:27.117Z,4.47
2023-02-25T07:53:58.521Z,4.47
2023-02-25T07:56:28.027Z,4.48
2023-02-25T07:58:54.696Z,4.47
2023-02-25T08:01:27.883Z,4.47
2023-02-25T08:03:57.494Z,4.44
2023-02-25T08:06:24.532Z,4.41
2023-02-25T08:08:54.776Z,4.42
2023-02-25T08:11:23.527Z,4.44
2023-02-25T08:13:50.746Z,4.38
2023-02-25T08:16:20.788Z,4.30
2023-02-25T08:18:48.130Z,4.24
2023-02-25T08:21:18.574Z,4.26
2023-02-25T08:23:45.402Z,4.20
2023-02-25T08:26:17.541Z,4.21
2023-02-25T08:28:44.842Z,4.22
2023-02-25T08:31:15.121Z,4.23
2023-02-25T08:33:43.790Z,4.30
2023-02-25T08:36:26.023Z,4.35
2023-02-25T08:38:59.512Z,4.34
2023-02-25T08:41:29.536Z,4.38
2023-02-25T08:43:58.277Z,4.43
2023-02-25T08:46:27.700Z,4.47
2023-02-25T08:48:54.978Z,4.59
2023-02-25T08:51:27.756Z,4.64
2023-02-25T08:53:54.393Z,4.77
2023-02-25T08:56:21.327Z,4.88
2023-02-25T08:58:47.933Z,4.93
2023-02-25T09:01:16.912Z,4.90
2023-02-25T09:03:53.819Z,4.83
2023-02-25T09:06:27.943Z,4.80
2023-02-25T09:08:56.343Z,4.77
2023-02-25T09:11:26.423Z,4.74
2023-02-25T09:13:54.394Z,4.69
2023-02-25T09:16:21.355Z,4.74
2023-02-25T09:18:49.003Z,4.80
2023-02-25T09:21:15.938Z,4.84
2023-02-25T09:23:42.975Z,5.01
2023-02-25T09:26:10.056Z,5.01
2023-02-25T09:28:36.738Z,5.03
2023-02-25T09:31:04.147Z,4.91
2023-02-25T09:33:32.145Z,4.84
2023-02-25T09:36:08.651Z,4.84
2023-02-25T09:38:36.903Z,4.81
2023-02-25T09:41:04.744Z,4.80
2023-02-25T09:43:40.047Z,4.77
2023-02-25T09:46:14.113Z,4.81
2023-02-25T09:48:59.846Z,4.85
2023-02-25T09:51:31.567Z,4.79
2023-02-25T09:54:16.726Z,4.80
2023-02-25T09:56:45.821Z,4.63
2023-02-25T09:59:21.576Z,4.60
2023-02-25T10:01:58.642Z,4.45
2023-02-25T10:04:37.812Z,4.34
2023-02-25T10:07:15.871Z,4.30
2023-02-25T10:09:54.148Z,4.17
2023-02-25T10:12:45.871Z,4.10
2023-02-25T10:15:27.732Z,4.02
2023-02-25T10:18:08.352Z,3.91
2023-02-25T10:20:39.242Z,4.03
2023-02-25T10:23:27.716Z,3.97
2023-02-25T10:26:09.283Z,4.02
2023-02-25T10:28:36.068Z,4.05
2023-02-25T10:31:10.031Z,4.09
2023-02-25T10:33:40.894Z,4.14
2023-02-25T10:36:15.634Z,4.34
2023-02-25T10:38:48.754Z,4.47
2023-02-25T10:41:16.919Z,4.66
2023-02-25T10:43:44.740Z,4.78
2023-02-25T10:46:23.226Z,4.99
2023-02-25T10:49:16.319Z,5.11
2023-02-25T10:51:56.941Z,5.33
2023-02-25T10:54:24.885Z,5.43
2023-02-25T10:56:52.738Z,5.45
2023-02-25T10:59:31.325Z,5.62
2023-02-25T11:02:00.231Z,5.65
2023-02-25T11:04:37.553Z,5.49
2023-02-25T11:07:38.195Z,5.52
2023-02-25T11:10:15.218Z,5.39
2023-02-25T11:12:49.199Z,5.34
2023-02-25T11:15:37.845Z,5.45
2023-02-25T11:18:23.903Z,5.40
2023-02-25T11:20:59.493Z,5.52
2023-02-25T11:23:37.906Z,5.62
2023-02-25T11:26:06.885Z,5.67
2023-02-25T11:28:39.788Z,5.72
2023-02-25T11:31:19.158Z,5.57
2023-02-25T11:33:57.500Z,5.62
2023-02-25T11:36:30.798Z,5.79
2023-02-25T11:39:16.584Z,5.92
2023-02-25T11:41:45.281Z,5.92
2023-02-25T11:44:30.190Z,5.91
2023-02-25T11:47:20.452Z,5.99
2023-02-25T11:49:51.480Z,5.97
2023-02-25T11:52:17.940Z,6.00
2023-02-25T11:55:12.733Z,6.10
2023-02-25T11:58:03.997Z,6.24
2023-02-25T12:00:40.155Z,6.31
2023-02-25T12:03:40.413Z,6.36
2023-02-25T12:06:21.662Z,6.39
2023-02-25T12:09:10.373Z,6.31
2023-02-25T12:11:53.334Z,6.01
2023-02-25T12:14:44.981Z,5.91
2023-02-25T12:17:30.423Z,5.91
2023-02-25T12:20:50.402Z,5.89
2023-02-25T12:23:45.032Z,5.94
2023-02-25T12:26:38.247Z,5.97
2023-02-25T12:29:32.288Z,6.05
2023-02-25T12:32:26.333Z,6.05
2023-02-25T12:35:15.469Z,6.04
2023-02-25T12:37:51.446Z,5.99
2023-02-25T12:40:41.136Z,6.09
2023-02-25T12:43:41.787Z,6.06
2023-02-25T12:46:33.155Z,5.96
2023-02-25T12:49:08.602Z,5.94
2023-02-25T12:51:44.222Z,5.87
2023-02-25T12:54:26.122Z,5.89
2023-02-25T12:57:18.870Z,5.77
2023-02-25T12:59:57.743Z,5.85
2023-02-25T13:02:36.359Z,5.88
2023-02-25T13:05:25.866Z,5.79
2023-02-25T13:07:52.383Z,5.79
2023-02-25T13:10:32.430Z,5.93
2023-02-25T13:13:12.812Z,6.09
2023-02-25T13:16:10.168Z,6.21
2023-02-25T13:18:55.593Z,6.11
2023-02-25T13:21:28.188Z,5.81
2023-02-25T13:24:06.241Z,5.65
2023-02-25T13:27:03.806Z,5.55
2023-02-25T13:29:50.307Z,5.57
2023-02-25T13:32:27.311Z,5.63
2023-02-25T13:35:14.858Z,5.70
2023-02-25T13:38:02.210Z,5.80
2023-02-25T13:40:51.504Z,5.98
2023-02-25T13:43:48.999Z,5.92
2023-02-25T13:46:56.555Z,5.96
2023-02-25T13:49:38.465Z,5.98
2023-02-25T13:52:25.523Z,5.99
2023-02-25T13:55:16.795Z,5.90
2023-02-25T13:58:07.551Z,5.90
2023-02-25T14:00:58.972Z,5.85
2023-02-25T14:03:28.541Z,5.89
2023-02-25T14:06:23.546Z,5.93
2023-02-25T14:09:08.510Z,5.90
2023-02-25T14:11:51.351Z,5.84
2023-02-25T14:14:42.370Z,5.80
2023-02-25T14:17:28.427Z,5.72
2023-02-25T14:20:11.766Z,5.70
2023-02-25T14:22:50.629Z,5.68
2023-02-25T14:25:36.175Z,5.62
2023-02-25T14:28:36.854Z,5.65
2023-02-25T14:31:42.013Z,5.66
2023-02-25T14:34:36.398Z,5.70
2023-02-25T14:37:40.718Z,5.71
2023-02-25T14:40:30.567Z,5.66
2023-02-25T14:43:35.157Z,5.65
2023-02-25T14:46:29.544Z,5.71
2023-02-25T14:49:15.137Z,5.65
2023-02-25T14:52:16.641Z,5.72
2023-02-25T14:54:52.251Z,5.75
2023-02-25T14:57:40.573Z,5.76
2023-02-25T15:00:43.579Z,5.75
2023-02-25T15:03:31.480Z,5.74
2023-02-25T15:06:23.713Z,5.74
2023-02-25T15:09:02.324Z,5.74
2023-02-25T15:11:31.810Z,5.63
2023-02-25T15:14:08.106Z,5.55
2023-02-25T15:16:41.432Z,5.52
2023-02-25T15:19:30.464Z,5.47
2023-02-25T15:22:20.880Z,5.48
2023-02-25T15:24:48.534Z,5.46
2023-02-25T15:27:36.710Z,5.45
2023-02-25T15:30:08.468Z,5.42
2023-02-25T15:32:47.424Z,5.36
2023-02-25T15:35:21.786Z,5.36
2023-02-25T15:37:51.120Z,5.34
2023-02-25T15:40:17.656Z,5.36
2023-02-25T15:42:48.781Z,5.36
2023-02-25T15:45:27.881Z,5.29
2023-02-25T15:48:12.645Z,5.28
2023-02-25T15:50:47.914Z,5.28
2023-02-25T15:53:21.229Z,5.25
2023-02-25T15:55:49.308Z,5.26
2023-02-25T15:58:24.778Z,5.23
2023-02-25T16:00:56.297Z,5.23
2023-02-25T16:03:39.434Z,5.16
2023-02-25T16:06:12.594Z,5.10
2023-02-25T16:09:00.986Z,5.16
2023-02-25T16:11:36.729Z,5.14
2023-02-25T16:14:15.029Z,5.15
2023-02-25T16:16:48.223Z,5.14
2023-02-25T16:19:19.081Z,5.13
2023-02-25T16:21:51.620Z,5.08
2023-02-25T16:24:19.146Z,5.07
2023-02-25T16:26:45.688Z,5.06
2023-02-25T16:29:35.442Z,5.05
2023-02-25T16:32:17.546Z,4.94
2023-02-25T16:35:04.209Z,4.93
2023-02-25T16:38:13.027Z,4.89
2023-02-25T16:40:42.676Z,4.88
2023-02-25T16:43:16.638Z,4.86
2023-02-25T16:46:02.688Z,4.81
2023-02-25T16:48:34.799Z,4.74
2023-02-25T16:51:10.616Z,4.73
2023-02-25T16:53:43.742Z,4.72
2023-02-25T16:56:23.956Z,4.71
2023-02-25T16:59:17.385Z,4.72
2023-02-25T17:01:53.333Z,4.70
2023-02-25T17:04:24.159Z,4.66
2023-02-25T17:07:14.931Z,4.61
2023-02-25T17:10:14.220Z,4.57
2023-02-25T17:12:45.896Z,4.51
2023-02-25T17:15:24.997Z,4.45
2023-02-25T17:18:24.415Z,4.43
2023-02-25T17:21:08.363Z,4.43
2023-02-25T17:23:41.198Z,4.39
2023-02-25T17:26:11.556Z,4.37
2023-02-25T17:28:44.051Z,4.34
2023-02-25T17:31:18.494Z,4.34
2023-02-25T17:33:55.658Z,4.36
2023-02-25T17:36:41.099Z,4.34
2023-02-25T17:39:19.592Z,4.30
2023-02-25T17:41:47.321Z,4.27
2023-02-25T17:44:42.682Z,4.27
2023-02-25T17:47:12.913Z,4.25
2023-02-25T17:49:39.768Z,4.16
2023-02-25T17:52:16.693Z,4.12
2023-02-25T17:54:47.873Z,4.06
2023-02-25T17:57:18.729Z,4.07
2023-02-25T18:00:09.094Z,3.98
2023-02-25T18:02:41.581Z,3.95
2023-02-25T18:05:14.259Z,3.93
2023-02-25T18:07:47.432Z,3.94
2023-02-25T18:10:23.080Z,3.90
2023-02-25T18:12:50.714Z,3.86
2023-02-25T18:15:22.150Z,3.81
2023-02-25T18:17:54.430Z,3.78
2023-02-25T18:20:36.479Z,3.76
2023-02-25T18:23:15.349Z,3.73
2023-02-25T18:25:45.002Z,3.74
2023-02-25T18:28:21.729Z,3.74
2023-02-25T18:30:50.195Z,3.66
2023-02-25T18:33:19.023Z,3.68
2023-02-25T18:35:47.216Z,3.67
2023-02-25T18:38:21.115Z,3.64
2023-02-25T18:40:49.129Z,3.63
2023-02-25T18:43:22.514Z,3.61
2023-02-25T18:45:49.126Z,3.64
2023-02-25T18:48:16.111Z,3.61
2023-02-25T18:50:44.657Z,3.59
2023-02-25T18:53:15.580Z,3.59
2023-02-25T18:55:44.937Z,3.57
2023-02-25T18:58:18.645Z,3.54
2023-02-25T19:00:48.819Z,3.56
2023-02-25T19:03:25.562Z,3.50
2023-02-25T19:05:52.449Z,3.48
2023-02-25T19:08:19.086Z,3.50
2023-02-25T19:10:45.829Z,3.44
2023-02-25T19:13:37.911Z,3.43
2023-02-25T19:16:05.535Z,3.44
2023-02-25T19:18:32.497Z,3.38
2023-02-25T19:20:59.038Z,3.32
2023-02-25T19:23:25.845Z,3.28
2023-02-25T19:26:00.149Z,3.28
2023-02-25T19:28:27.161Z,3.24
2023-02-25T19:30:53.773Z,3.19
2023-02-25T19:33:20.409Z,3.19
2023-02-25T19:35:46.985Z,3.22
2023-02-25T19:38:16.259Z,3.19
2023-02-25T19:40:46.523Z,3.17
2023-02-25T19:43:13.425Z,3.13
2023-02-25T19:45:40.859Z,3.11
2023-02-25T19:48:08.152Z,3.09
2023-02-25T19:50:35.550Z,3.06
2023-02-25T19:53:05.575Z,3.05
2023-02-25T19:55:33.380Z,3.05
2023-02-25T19:58:00.057Z,3.08
2023-02-25T20:00:26.701Z,3.11
2023-02-25T20:02:56.348Z,3.04
2023-02-25T20:05:25.620Z,3.04
2023-02-25T20:07:52.586Z,3.07
2023-02-25T20:10:19.619Z,3.06
2023-02-25T20:12:47.079Z,3.08
2023-02-25T20:15:15.483Z,3.09
2023-02-25T20:17:46.341Z,3.10
2023-02-25T20:20:14.610Z,3.08
2023-02-25T20:22:42.908Z,3.01
2023-02-25T20:25:10.290Z,2.98
2023-02-25T20:27:39.281Z,2.94
2023-02-25T20:30:07.007Z,2.88
2023-02-25T20:32:34.229Z,2.76
2023-02-25T20:35:01.112Z,2.75
2023-02-25T20:37:33.664Z,2.74
2023-02-25T20:40:00.595Z,2.72
2023-02-25T20:42:31.462Z,2.71
2023-02-25T20:44:59.338Z,2.71
2023-02-25T20:47:36.563Z,2.72
2023-02-25T20:50:07.058Z,2.71
2023-02-25T20:52:34.242Z,2.71
2023-02-25T20:55:00.837Z,2.65
2023-02-25T20:57:27.573Z,2.64
2023-02-25T20:59:54.599Z,2.62
2023-02-25T21:02:21.754Z,2.63
2023-02-25T21:04:48.657Z,2.61
2023-02-25T21:07:15.272Z,2.60
2023-02-25T21:09:41.935Z,2.56
2023-02-25T21:12:08.784Z,2.54
2023-02-25T21:14:35.476Z,2.54
2023-02-25T21:17:02.041Z,2.57
2023-02-25T21:19:28.579Z,2.55
2023-02-25T21:21:55.445Z,2.59
2023-02-25T21:24:22.035Z,2.56
2023-02-25T21:26:48.624Z,2.57
2023-02-25T21:29:16.010Z,2.55
2023-02-25T21:31:43.013Z,2.52
2023-02-25T21:34:13.022Z,2.50
2023-02-25T21:36:40.472Z,2.44
2023-02-25T21:39:09.222Z,2.51
2023-02-25T21:41:37.219Z,2.48
2023-02-25T21:44:04.270Z,2.47
2023-02-25T21:46:30.902Z,2.47
2023-02-25T21:48:57.517Z,2.46
2023-02-25T21:51:26.346Z,2.45
2023-02-25T21:53:58.115Z,2.45
2023-02-25T21:56:26.067Z,2.45
2023-02-25T21:58:58.268Z,2.45
2023-02-25T22:01:28.847Z,2.39
2023-02-25T22:03:55.667Z,2.36
2023-02-25T22:06:26.132Z,2.35
2023-02-25T22:08:53.747Z,2.32
2023-02-25T22:11:23.980Z,2.30
2023-02-25T22:13:51.015Z,2.29
2023-02-25T22:16:17.941Z,2.26
2023-02-25T22:18:44.956Z,2.23
2023-02-25T22:21:16.988Z,2.24
2023-02-25T22:23:43.619Z,2.18
2023-02-25T22:26:15.433Z,2.18
2023-02-25T22:28:43.460Z,2.13
2023-02-25T22:31:14.862Z,2.15
2023-02-25T22:33:41.689Z,2.11
2023-02-25T22:36:09.468Z,2.10
2023-02-25T22:38:38.548Z,2.09
2023-02-25T22:41:10.793Z,1.99
2023-02-25T22:43:37.933Z,1.97
2023-02-25T22:46:09.510Z,1.95
2023-02-25T22:48:38.573Z,1.94
2023-02-25T22:51:06.910Z,1.92
2023-02-25T22:53:33.508Z,1.90
2023-02-25T22:56:06.729Z,1.94
2023-02-25T22:58:33.691Z,1.97
2023-02-25T23:01:00.436Z,1.92
2023-02-25T23:03:27.157Z,1.89
2023-02-25T23:05:54.875Z,1.87
2023-02-25T23:08:22.525Z,1.85
2023-02-25T23:10:49.421Z,1.80
2023-02-25T23:13:18.939Z,1.84
2023-02-25T23:15:49.142Z,1.84
2023-02-25T23:18:16.179Z,1.86
2023-02-25T23:20:43.585Z,1.78
2023-02-25T23:23:18.014Z,1.77
2023-02-25T23:25:54.591Z,1.83
2023-02-25T23:28:21.205Z,1.80
2023-02-25T23:30:47.901Z,1.82
2023-02-25T23:33:14.531Z,1.80
2023-02-25T23:35:42.128Z,1.79
2023-02-25T23:38:09.572Z,1.75
2023-02-25T23:40:36.169Z,1.77
2023-02-25T23:43:02.774Z,1.74
2023-02-25T23:45:32.803Z,1.74
2023-02-25T23:47:59.409Z,1.80
2023-02-25T23:50:27.063Z,1.79
2023-02-25T23:52:54.000Z,1.75
2023-02-25T23:55:21.080Z,1.72
2023-02-25T23:57:50.069Z,1.65
